^^

..:: Storico WU ::..




Lo storico viene creato da WUnderground con i dati che la stazione Meteomincio invia al loro server. L' aggiornamento viene fatto ogni 5 minuti circa, tuttavia possono esserci intervalli pił ampi a causa di errori, interruzioni di servizio o problemi nell' invio tramite FTP.


Storico stazione MeteoMincio
Giorno Sommario per Marzo 27, 2023 Unità:  Inglese    Metrico   Entrambi
Giorno Settimana Mese Anno
  Max: Min: Media:
Temperatura: 69.8 °F 42.8 °F 54.3 °F
Dew Point: 50 °F 19.4 °F 37 °F
Umidità: 95% 21% 60%
Velocità vento: 23mph 1.2mph 8.5mph
Raffica: 32.3mph - -
Direzione- - WNW
Pressione: 30 in 29.5 in -
Precipitazioni: 0.01 in    
 
 
Tabulato Dati per Marzo 27, 2023
Ora Temperatura Dew Point Pressione Direzione Velocità vento Raffica Umidità Intensità pioggia (oraria) Info solare Situazione
00:04 48.2 °F 46.4 °F 29.6 in West 5 mph 9.9 mph 94% 0 in 0.00 W/m2 unknown
00:09 48.2 °F 46.4 °F 29.6 in West 6.2 mph 8.1 mph 94% 0 in 0.00 W/m2 unknown
00:14 48.2 °F 46.4 °F 29.6 in West 7.5 mph 11.8 mph 94% 0 in 0.00 W/m2 unknown
00:19 48.2 °F 46.4 °F 29.6 in WNW 8.7 mph 11.8 mph 94% 0 in 0.00 W/m2 unknown
00:24 48.2 °F 46.4 °F 29.6 in NW 8.1 mph 11.8 mph 94% 0 in 0.00 W/m2 unknown
00:29 48.2 °F 46.4 °F 29.6 in NW 5 mph 11.8 mph 94% 0 in 0.00 W/m2 unknown
00:34 48.2 °F 46.4 °F 29.6 in WNW 5.6 mph 9.3 mph 94% 0 in 0.00 W/m2 unknown
00:39 48.2 °F 46.4 °F 29.6 in WNW 8.1 mph 11.8 mph 94% 0 in 0.00 W/m2 unknown
00:44 48.2 °F 46.4 °F 29.6 in WNW 14.9 mph 19.9 mph 94% 0 in 0.00 W/m2 unknown
00:49 48.2 °F 46.4 °F 29.6 in WNW 14.3 mph 19.9 mph 94% 0 in 0.00 W/m2 unknown
00:54 50 °F 48.2 °F 29.6 in WNW 10.6 mph 16.2 mph 93% 0 in 0.00 W/m2 unknown
00:59 50 °F 48.2 °F 29.5 in WNW 10.6 mph 16.2 mph 93% 0 in 0.00 W/m2 unknown
01:04 48.2 °F 46.4 °F 29.5 in WNW 9.9 mph 16.2 mph 93% 0 in 0.00 W/m2 unknown
01:09 48.2 °F 46.4 °F 29.5 in NW 8.7 mph 14.3 mph 93% 0 in 0.00 W/m2 unknown
01:14 48.2 °F 46.4 °F 29.5 in WNW 8.1 mph 13 mph 92% 0 in 0.00 W/m2 unknown
01:19 48.2 °F 46.4 °F 29.5 in WNW 9.3 mph 11.8 mph 92% 0 in 0.00 W/m2 unknown
01:24 48.2 °F 46.4 °F 29.6 in West 8.7 mph 11.8 mph 92% 0 in 0.00 W/m2 unknown
01:29 48.2 °F 46.4 °F 29.6 in West 10.6 mph 14.9 mph 92% 0 in 0.00 W/m2 unknown
01:34 48.2 °F 46.4 °F 29.6 in West 9.9 mph 14.9 mph 92% 0 in 0.00 W/m2 unknown
01:39 48.2 °F 46.4 °F 29.6 in West 9.9 mph 14.3 mph 93% 0 in 0.00 W/m2 unknown
01:44 48.2 °F 46.4 °F 29.6 in West 8.1 mph 14.3 mph 93% 0 in 0.00 W/m2 unknown
01:49 48.2 °F 46.4 °F 29.6 in West 5.6 mph 11.8 mph 92% 0 in 0.00 W/m2 unknown
01:54 48.2 °F 46.4 °F 29.6 in WSW 3.7 mph 8.1 mph 92% 0 in 0.00 W/m2 unknown
01:59 48.2 °F 46.4 °F 29.6 in West 5 mph 6.8 mph 92% 0 in 0.00 W/m2 unknown
02:04 48.2 °F 44.6 °F 29.6 in WSW 4.3 mph 6.8 mph 92% 0 in 0.00 W/m2 unknown
02:09 48.2 °F 44.6 °F 29.6 in SW 5.6 mph 8.1 mph 92% 0 in 0.00 W/m2 unknown
02:14 48.2 °F 46.4 °F 29.6 in SW 5.6 mph 8.1 mph 93% 0 in 0.00 W/m2 unknown
02:19 48.2 °F 44.6 °F 29.6 in WSW 5.6 mph 8.1 mph 93% 0 in 0.00 W/m2 unknown
02:24 48.2 °F 44.6 °F 29.6 in WSW 5.6 mph 9.9 mph 93% 0 in 0.00 W/m2 unknown
02:29 46.4 °F 44.6 °F 29.6 in WSW 7.5 mph 10.6 mph 93% 0 in 0.00 W/m2 unknown
02:34 46.4 °F 44.6 °F 29.6 in West 7.5 mph 10.6 mph 93% 0 in 0.00 W/m2 unknown
02:39 46.4 °F 44.6 °F 29.6 in West 7.5 mph 10.6 mph 93% 0 in 0.00 W/m2 unknown
02:44 46.4 °F 44.6 °F 29.6 in West 6.8 mph 9.9 mph 93% 0 in 0.00 W/m2 unknown
02:49 46.4 °F 44.6 °F 29.6 in WNW 3.1 mph 8.7 mph 93% 0 in 0.00 W/m2 unknown
02:54 46.4 °F 44.6 °F 29.6 in NNE 3.1 mph 5 mph 93% 0 in 0.00 W/m2 unknown
02:59 46.4 °F 44.6 °F 29.6 in ENE 3.7 mph 6.2 mph 93% 0 in 0.00 W/m2 unknown
03:04 46.4 °F 44.6 °F 29.6 in East 5 mph 6.2 mph 93% 0 in 0.00 W/m2 unknown
03:09 46.4 °F 44.6 °F 29.6 in ESE 3.1 mph 6.2 mph 94% 0 in 0.00 W/m2 unknown
03:14 46.4 °F 44.6 °F 29.6 in ESE 1.2 mph 3.1 mph 94% 0 in 0.00 W/m2 unknown
03:19 46.4 °F 44.6 °F 29.6 in SW 1.2 mph 2.5 mph 94% 0 in 0.00 W/m2 unknown
03:24 44.6 °F 44.6 °F 29.6 in WSW 1.9 mph 2.5 mph 94% 0 in 0.00 W/m2 unknown
03:29 44.6 °F 42.8 °F 29.6 in WSW 1.9 mph 2.5 mph 94% 0 in 0.00 W/m2 unknown
03:34 44.6 °F 42.8 °F 29.6 in SSW 1.2 mph 3.7 mph 94% 0 in 0.00 W/m2 unknown
03:39 44.6 °F 42.8 °F 29.6 in South 2.5 mph 3.7 mph 94% 0 in 0.00 W/m2 unknown
03:44 44.6 °F 42.8 °F 29.6 in SSW 2.5 mph 3.7 mph 94% 0 in 0.00 W/m2 unknown
03:49 44.6 °F 42.8 °F 29.6 in South 2.5 mph 3.7 mph 94% 0 in 0.00 W/m2 unknown
03:54 44.6 °F 42.8 °F 29.6 in SSW 2.5 mph 3.7 mph 94% 0 in 0.00 W/m2 unknown
03:59 44.6 °F 42.8 °F 29.6 in WSW 3.1 mph 3.7 mph 94% 0 in 0.00 W/m2 unknown
04:04 44.6 °F 42.8 °F 29.6 in WSW 3.1 mph 5 mph 95% 0 in 0.00 W/m2 unknown
04:09 44.6 °F 42.8 °F 29.6 in WSW 4.3 mph 6.2 mph 94% 0 in 0.00 W/m2 unknown
04:14 42.8 °F 41 °F 29.6 in WSW 5 mph 6.2 mph 94% 0 in 0.00 W/m2 unknown
04:19 42.8 °F 42.8 °F 29.6 in West 4.3 mph 6.2 mph 95% 0 in 0.00 W/m2 unknown
04:24 44.6 °F 42.8 °F 29.6 in West 5 mph 6.8 mph 95% 0 in 0.00 W/m2 unknown
04:29 44.6 °F 42.8 °F 29.6 in West 5.6 mph 6.8 mph 95% 0 in 0.00 W/m2 unknown
04:34 44.6 °F 42.8 °F 29.6 in West 5.6 mph 6.8 mph 95% 0 in 0.00 W/m2 unknown
04:39 44.6 °F 42.8 °F 29.6 in West 5 mph 6.8 mph 95% 0 in 0.00 W/m2 unknown
04:44 44.6 °F 42.8 °F 29.6 in West 5 mph 6.8 mph 95% 0 in 0.00 W/m2 unknown
04:49 44.6 °F 42.8 °F 29.6 in West 5.6 mph 6.8 mph 95% 0 in 0.00 W/m2 unknown
04:54 44.6 °F 42.8 °F 29.6 in WNW 6.2 mph 8.1 mph 94% 0 in 0.00 W/m2 unknown
04:59 44.6 °F 42.8 °F 29.6 in WNW 6.2 mph 8.1 mph 94% 0 in 0.00 W/m2 unknown
05:04 44.6 °F 42.8 °F 29.6 in WNW 6.2 mph 8.1 mph 94% 0 in 0.00 W/m2 unknown
05:09 44.6 °F 42.8 °F 29.6 in WNW 4.3 mph 6.8 mph 94% 0 in 0.00 W/m2 unknown
05:14 44.6 °F 42.8 °F 29.6 in WNW 3.7 mph 6.2 mph 93% 0 in 0.00 W/m2 unknown
05:19 44.6 °F 42.8 °F 29.6 in WNW 4.3 mph 6.2 mph 93% 0 in 0.00 W/m2 unknown
05:24 44.6 °F 42.8 °F 29.6 in West 5 mph 6.8 mph 93% 0 in 0.00 W/m2 unknown
05:29 44.6 °F 42.8 °F 29.6 in West 6.2 mph 6.8 mph 93% 0 in 0.00 W/m2 unknown
05:34 44.6 °F 42.8 °F 29.6 in West 6.2 mph 9.3 mph 93% 0 in 0.00 W/m2 unknown
05:39 44.6 °F 42.8 °F 29.6 in West 6.2 mph 8.7 mph 93% 0 in 0.00 W/m2 unknown
05:44 44.6 °F 42.8 °F 29.6 in West 5.6 mph 8.1 mph 93% 0 in 0.00 W/m2 unknown
05:49 44.6 °F 42.8 °F 29.6 in WNW 6.8 mph 10.6 mph 93% 0 in 0.00 W/m2 unknown
05:54 44.6 °F 42.8 °F 29.6 in West 6.8 mph 9.9 mph 93% 0 in 0.00 W/m2 unknown
05:59 44.6 °F 42.8 °F 29.6 in WNW 6.2 mph 9.3 mph 93% 0 in 0.00 W/m2 unknown
06:04 44.6 °F 42.8 °F 29.6 in WNW 6.2 mph 9.3 mph 93% 0.01 in 0.00 W/m2 unknown
06:09 44.6 °F 42.8 °F 29.6 in WNW 6.8 mph 8.7 mph 93% 0.01 in 0.00 W/m2 unknown
06:14 44.6 °F 42.8 °F 29.6 in WNW 6.8 mph 8.1 mph 93% 0.01 in 0.00 W/m2 unknown
06:19 44.6 °F 42.8 °F 29.6 in WNW 6.2 mph 8.1 mph 93% 0.01 in 0.00 W/m2 unknown
06:24 44.6 °F 42.8 °F 29.6 in WNW 6.2 mph 8.1 mph 93% 0.01 in 0.00 W/m2 unknown
06:29 44.6 °F 42.8 °F 29.6 in WNW 5 mph 8.1 mph 92% 0.01 in 0.00 W/m2 unknown
06:34 44.6 °F 42.8 °F 29.6 in WNW 5 mph 6.8 mph 92% 0.01 in 0.00 W/m2 unknown
06:39 44.6 °F 42.8 °F 29.6 in WNW 3.7 mph 6.2 mph 92% 0.01 in 0.00 W/m2 unknown
06:44 44.6 °F 41 °F 29.6 in NW 1.9 mph 3.7 mph 92% 0.01 in 0.00 W/m2 unknown
06:49 44.6 °F 41 °F 29.6 in NW 1.9 mph 3.7 mph 92% 0.01 in 0.00 W/m2 unknown
06:54 42.8 °F 41 °F 29.6 in WNW 1.9 mph 3.7 mph 92% 0.01 in 0.00 W/m2 unknown
06:59 42.8 °F 41 °F 29.6 in West 3.1 mph 3.7 mph 92% 0.01 in 0.00 W/m2 unknown
07:04 42.8 °F 41 °F 29.6 in WNW 3.7 mph 6.2 mph 92% 0.01 in 0.00 W/m2 unknown
07:09 42.8 °F 41 °F 29.6 in WNW 3.7 mph 6.2 mph 93% 0 in 0.00 W/m2 unknown
07:14 42.8 °F 41 °F 29.6 in West 5 mph 6.8 mph 92% 0 in 5.00 W/m2 unknown
07:19 42.8 °F 41 °F 29.6 in WNW 5 mph 6.8 mph 93% 0 in 7.00 W/m2 unknown
07:24 42.8 °F 41 °F 29.6 in WNW 5 mph 6.8 mph 93% 0 in 11.00 W/m2 unknown
07:29 42.8 °F 41 °F 29.6 in WNW 5 mph 6.8 mph 93% 0 in 12.00 W/m2 unknown
07:34 42.8 °F 41 °F 29.6 in WNW 3.7 mph 6.8 mph 93% 0 in 16.00 W/m2 unknown
07:39 42.8 °F 41 °F 29.6 in WNW 3.1 mph 5 mph 93% 0 in 18.00 W/m2 unknown
07:44 42.8 °F 41 °F 29.6 in NW 3.7 mph 6.2 mph 93% 0 in 18.00 W/m2 unknown
07:49 42.8 °F 41 °F 29.6 in WNW 3.1 mph 6.2 mph 93% 0 in 19.00 W/m2 unknown
07:54 42.8 °F 41 °F 29.6 in WNW 4.3 mph 6.2 mph 93% 0 in 19.00 W/m2 unknown
07:59 42.8 °F 41 °F 29.6 in WNW 3.7 mph 6.2 mph 93% 0 in 19.00 W/m2 unknown
08:04 42.8 °F 41 °F 29.6 in WNW 3.1 mph 6.2 mph 93% 0 in 19.00 W/m2 unknown
08:09 42.8 °F 41 °F 29.6 in WNW 3.1 mph 5 mph 93% 0 in 19.00 W/m2 unknown
08:14 42.8 °F 41 °F 29.6 in West 5 mph 6.8 mph 93% 0 in 19.00 W/m2 unknown
08:19 42.8 °F 41 °F 29.6 in NW 5 mph 6.8 mph 93% 0 in 21.00 W/m2 unknown
08:24 42.8 °F 39.2 °F 29.6 in WNW 5 mph 6.2 mph 92% 0 in 51.00 W/m2 unknown
08:29 42.8 °F 41 °F 29.6 in WNW 5 mph 6.8 mph 92% 0 in 153.00 W/m2 unknown
08:34 42.8 °F 41 °F 29.6 in West 5.6 mph 8.1 mph 93% 0 in 169.00 W/m2 unknown
08:39 44.6 °F 41 °F 29.6 in WNW 6.2 mph 9.3 mph 93% 0 in 195.00 W/m2 unknown
08:44 44.6 °F 42.8 °F 29.6 in WNW 6.8 mph 11.2 mph 92% 0 in 211.00 W/m2 unknown
08:49 44.6 °F 42.8 °F 29.6 in West 7.5 mph 11.8 mph 92% 0 in 225.00 W/m2 unknown
08:54 46.4 °F 42.8 °F 29.6 in WNW 7.5 mph 11.8 mph 92% 0 in 239.00 W/m2 unknown
08:59 46.4 °F 44.6 °F 29.6 in WNW 8.1 mph 11.2 mph 91% 0 in 255.00 W/m2 unknown
09:04 46.4 °F 44.6 °F 29.6 in WNW 9.9 mph 11.8 mph 91% 0 in 272.00 W/m2 unknown
09:09 48.2 °F 44.6 °F 29.6 in WNW 10.6 mph 14.3 mph 89% 0 in 287.00 W/m2 unknown
09:14 48.2 °F 44.6 °F 29.6 in WNW 9.9 mph 14.3 mph 88% 0 in 301.00 W/m2 unknown
09:19 48.2 °F 44.6 °F 29.7 in WNW 9.9 mph 14.3 mph 87% 0 in 302.00 W/m2 unknown
09:24 48.2 °F 44.6 °F 29.7 in WNW 13.7 mph 17.4 mph 86% 0 in 272.00 W/m2 unknown
09:29 48.2 °F 44.6 °F 29.7 in WNW 13 mph 17.4 mph 85% 0 in 345.00 W/m2 unknown
09:34 50 °F 44.6 °F 29.7 in WNW 9.9 mph 14.9 mph 84% 0 in 357.00 W/m2 unknown
09:39 50 °F 44.6 °F 29.7 in WNW 9.9 mph 14.3 mph 83% 0 in 374.00 W/m2 unknown
09:44 50 °F 44.6 °F 29.7 in WNW 9.3 mph 14.3 mph 82% 0 in 383.00 W/m2 unknown
09:49 51.8 °F 46.4 °F 29.7 in NW 8.1 mph 13 mph 82% 0 in 397.00 W/m2 unknown
09:54 51.8 °F 46.4 °F 29.7 in WNW 11.8 mph 14.9 mph 81% 0 in 413.00 W/m2 unknown
09:59 51.8 °F 44.6 °F 29.7 in WNW 11.8 mph 14.9 mph 79% 0 in 425.00 W/m2 unknown
10:04 51.8 °F 44.6 °F 29.7 in West 8.7 mph 13 mph 78% 0 in 441.00 W/m2 unknown
10:09 51.8 °F 44.6 °F 29.7 in West 9.9 mph 13 mph 77% 0 in 455.00 W/m2 unknown
10:14 51.8 °F 44.6 °F 29.7 in West 11.2 mph 14.3 mph 77% 0 in 469.00 W/m2 unknown
10:19 51.8 °F 44.6 °F 29.7 in WNW 11.2 mph 14.3 mph 76% 0 in 480.00 W/m2 unknown
10:24 53.6 °F 46.4 °F 29.7 in WNW 10.6 mph 14.3 mph 77% 0 in 490.00 W/m2 unknown
10:29 53.6 °F 44.6 °F 29.7 in West 8.7 mph 14.3 mph 75% 0 in 503.00 W/m2 unknown
10:34 53.6 °F 44.6 °F 29.7 in WNW 9.3 mph 11.8 mph 75% 0 in 517.00 W/m2 unknown
10:39 53.6 °F 46.4 °F 29.7 in WNW 8.7 mph 11.8 mph 75% 0 in 529.00 W/m2 unknown
10:44 53.6 °F 46.4 °F 29.7 in WNW 9.9 mph 13 mph 75% 0 in 541.00 W/m2 unknown
10:49 53.6 °F 46.4 °F 29.7 in WNW 9.3 mph 13 mph 75% 0 in 554.00 W/m2 unknown
10:54 55.4 °F 46.4 °F 29.7 in WNW 12.4 mph 17.4 mph 74% 0 in 563.00 W/m2 unknown
10:59 55.4 °F 46.4 °F 29.7 in WNW 13.7 mph 17.4 mph 72% 0 in 577.00 W/m2 unknown
11:04 57.2 °F 46.4 °F 29.7 in WNW 11.2 mph 17.4 mph 71% 0 in 587.00 W/m2 unknown
11:09 57.2 °F 46.4 °F 29.7 in WNW 11.8 mph 17.4 mph 70% 0 in 598.00 W/m2 unknown
11:14 57.2 °F 48.2 °F 29.7 in West 13 mph 18.6 mph 70% 0 in 606.00 W/m2 unknown
11:19 57.2 °F 48.2 °F 29.7 in WNW 14.3 mph 18 mph 69% 0 in 619.00 W/m2 unknown
11:24 57.2 °F 46.4 °F 29.7 in WNW 13.7 mph 18.6 mph 66% 0 in 629.00 W/m2 unknown
11:29 59 °F 46.4 °F 29.7 in WNW 14.3 mph 19.9 mph 65% 0 in 635.00 W/m2 unknown
11:34 59 °F 46.4 °F 29.7 in WNW 15.5 mph 19.9 mph 64% 0 in 643.00 W/m2 unknown
11:39 59 °F 46.4 °F 29.7 in WNW 15.5 mph 19.9 mph 64% 0 in 654.00 W/m2 unknown
11:44 59 °F 46.4 °F 29.7 in WNW 16.2 mph 19.9 mph 64% 0 in 663.00 W/m2 unknown
11:49 59 °F 48.2 °F 29.7 in WNW 14.3 mph 19.9 mph 65% 0 in 668.00 W/m2 unknown
11:54 60.8 °F 48.2 °F 29.7 in WNW 14.9 mph 19.9 mph 64% 0 in 675.00 W/m2 unknown
11:59 60.8 °F 48.2 °F 29.7 in WNW 14.9 mph 18.6 mph 63% 0 in 686.00 W/m2 unknown
12:04 60.8 °F 48.2 °F 29.7 in WNW 12.4 mph 18 mph 64% 0 in 691.00 W/m2 unknown
12:09 60.8 °F 48.2 °F 29.7 in WNW 16.2 mph 19.9 mph 62% 0 in 700.00 W/m2 unknown
12:14 62.6 °F 50 °F 29.7 in WNW 13.7 mph 19.9 mph 63% 0 in 705.00 W/m2 unknown
12:19 62.6 °F 50 °F 29.7 in West 13 mph 18.6 mph 62% 0 in 712.00 W/m2 unknown
12:24 64.4 °F 50 °F 29.7 in WNW 10.6 mph 18 mph 60% 0 in 717.00 W/m2 unknown
12:29 64.4 °F 48.2 °F 29.7 in WNW 14.9 mph 21.1 mph 58% 0 in 719.00 W/m2 unknown
12:34 64.4 °F 46.4 °F 29.7 in WNW 16.2 mph 21.1 mph 53% 0 in 724.00 W/m2 unknown
12:39 64.4 °F 44.6 °F 29.7 in WNW 14.9 mph 19.9 mph 49% 0 in 729.00 W/m2 unknown
12:44 64.4 °F 46.4 °F 29.7 in WNW 14.3 mph 19.9 mph 49% 0 in 735.00 W/m2 unknown
12:49 66.2 °F 46.4 °F 29.7 in WNW 16.2 mph 19.9 mph 49% 0 in 737.00 W/m2 unknown
12:54 66.2 °F 46.4 °F 29.7 in WNW 14.3 mph 19.9 mph 48% 0 in 742.00 W/m2 unknown
12:59 66.2 °F 44.6 °F 29.7 in WNW 14.9 mph 21.7 mph 46% 0 in 744.00 W/m2 unknown
13:04 66.2 °F 44.6 °F 29.7 in WNW 13 mph 21.7 mph 45% 0 in 745.00 W/m2 unknown
13:09 66.2 °F 42.8 °F 29.7 in WNW 14.9 mph 19.9 mph 42% 0 in 745.00 W/m2 unknown
13:14 66.2 °F 42.8 °F 29.7 in WNW 15.5 mph 21.1 mph 41% 0 in 751.00 W/m2 unknown
13:19 66.2 °F 39.2 °F 29.7 in WNW 16.8 mph 21.7 mph 36% 0 in 754.00 W/m2 unknown
13:24 66.2 °F 39.2 °F 29.7 in WNW 16.8 mph 23 mph 36% 0 in 756.00 W/m2 unknown
13:29 66.2 °F 39.2 °F 29.7 in WNW 17.4 mph 23 mph 36% 0 in 758.00 W/m2 unknown
13:34 68 °F 41 °F 29.7 in WNW 12.4 mph 23 mph 38% 0 in 761.00 W/m2 unknown
13:39 68 °F 39.2 °F 29.7 in West 16.2 mph 21.7 mph 36% 0 in 775.00 W/m2 unknown
13:44 68 °F 39.2 °F 29.7 in WNW 17.4 mph 21.7 mph 35% 0 in 791.00 W/m2 unknown
13:49 68 °F 37.4 °F 29.7 in NW 9.3 mph 21.7 mph 34% 0 in 810.00 W/m2 unknown
13:54 68 °F 35.6 °F 29.7 in NW 9.3 mph 14.3 mph 29% 0 in 810.00 W/m2 unknown
13:59 68 °F 33.8 °F 29.7 in NNW 8.1 mph 14.3 mph 30% 0 in 798.00 W/m2 unknown
14:04 68 °F 35.6 °F 29.7 in NW 8.7 mph 13 mph 29% 0 in 796.00 W/m2 unknown
14:09 68 °F 37.4 °F 29.7 in NNW 8.1 mph 11.8 mph 31% 0 in 798.00 W/m2 unknown
14:14 68 °F 35.6 °F 29.7 in NNW 6.2 mph 11.8 mph 30% 0 in 798.00 W/m2 unknown
14:19 68 °F 35.6 °F 29.7 in NW 7.5 mph 10.6 mph 30% 0 in 72.00 W/m2 unknown
14:24 66.2 °F 33.8 °F 29.7 in NW 9.3 mph 14.9 mph 30% 0 in 782.00 W/m2 unknown
14:29 68 °F 33.8 °F 29.7 in NW 9.3 mph 14.9 mph 29% 0 in 782.00 W/m2 unknown
14:34 68 °F 33.8 °F 29.7 in NNW 11.2 mph 18 mph 27% 0 in 765.00 W/m2 unknown
14:39 69.8 °F 33.8 °F 29.7 in NNW 10.6 mph 18 mph 28% 0 in 786.00 W/m2 unknown
14:44 69.8 °F 33.8 °F 29.7 in NNW 8.7 mph 13 mph 27% 0 in 788.00 W/m2 unknown
14:49 68 °F 33.8 °F 29.7 in NNW 11.8 mph 17.4 mph 28% 0 in 831.00 W/m2 unknown
14:54 69.8 °F 33.8 °F 29.7 in NW 10.6 mph 16.8 mph 27% 0 in 875.00 W/m2 unknown
14:59 69.8 °F 35.6 °F 29.7 in NNW 8.7 mph 16.2 mph 29% 0 in 875.00 W/m2 unknown
15:04 69.8 °F 33.8 °F 29.7 in North 9.3 mph 14.3 mph 29% 0 in 188.00 W/m2 unknown
15:09 68 °F 33.8 °F 29.7 in NNW 6.8 mph 14.3 mph 29% 0 in 179.00 W/m2 unknown
15:14 66.2 °F 33.8 °F 29.7 in NNW 6.2 mph 8.7 mph 29% 0 in 207.00 W/m2 unknown
15:19 66.2 °F 33.8 °F 29.7 in NNW 8.1 mph 11.8 mph 30% 0 in 232.00 W/m2 unknown
15:24 66.2 °F 33.8 °F 29.7 in NW 8.1 mph 11.8 mph 29% 0 in 220.00 W/m2 unknown
15:29 66.2 °F 35.6 °F 29.7 in NNW 5 mph 11.8 mph 32% 0 in 211.00 W/m2 unknown
15:34 66.2 °F 35.6 °F 29.7 in NNW 5.6 mph 8.1 mph 32% 0 in 216.00 W/m2 unknown
15:39 66.2 °F 35.6 °F 29.7 in NNW 6.2 mph 11.2 mph 31% 0 in 715.00 W/m2 unknown
15:44 68 °F 35.6 °F 29.7 in NW 9.9 mph 14.3 mph 31% 0 in 715.00 W/m2 unknown
15:49 68 °F 33.8 °F 29.7 in WNW 19.3 mph 28 mph 29% 0 in 677.00 W/m2 unknown
15:54 68 °F 32 °F 29.7 in NW 16.8 mph 28 mph 27% 0 in 659.00 W/m2 unknown
15:59 68 °F 32 °F 29.7 in NW 8.7 mph 21.1 mph 26% 0 in 612.00 W/m2 unknown
16:04 68 °F 32 °F 29.7 in WNW 18.6 mph 23 mph 26% 0 in 605.00 W/m2 unknown
16:09 68 °F 30.2 °F 29.7 in WNW 23 mph 32.3 mph 24% 0 in 584.00 W/m2 unknown
16:14 68 °F 30.2 °F 29.7 in WNW 18.6 mph 31.7 mph 25% 0 in 580.00 W/m2 unknown
16:19 68 °F 30.2 °F 29.7 in WNW 18.6 mph 25.5 mph 25% 0 in 566.00 W/m2 unknown
16:24 68 °F 30.2 °F 29.7 in WNW 20.5 mph 26.7 mph 25% 0 in 552.00 W/m2 unknown
16:29 68 °F 28.4 °F 29.7 in WNW 18.6 mph 23 mph 24% 0 in 540.00 W/m2 unknown
16:34 68 °F 28.4 °F 29.7 in NW 21.1 mph 26.7 mph 24% 0 in 529.00 W/m2 unknown
16:39 68 °F 28.4 °F 29.7 in WNW 18 mph 26.7 mph 24% 0 in 513.00 W/m2 unknown
16:44 68 °F 28.4 °F 29.7 in WNW 16.2 mph 24.2 mph 24% 0 in 504.00 W/m2 unknown
16:49 68 °F 30.2 °F 29.7 in NW 11.8 mph 21.1 mph 24% 0 in 490.00 W/m2 unknown
16:54 68 °F 28.4 °F 29.7 in NW 11.8 mph 19.9 mph 22% 0 in 478.00 W/m2 unknown
16:59 68 °F 28.4 °F 29.7 in NW 13 mph 19.9 mph 22% 0 in 468.00 W/m2 unknown
17:04 68 °F 28.4 °F 29.7 in NW 11.8 mph 19.9 mph 22% 0 in 454.00 W/m2 unknown
17:09 68 °F 28.4 °F 29.7 in NW 11.8 mph 17.4 mph 23% 0 in 436.00 W/m2 unknown
17:14 68 °F 28.4 °F 29.7 in NW 9.9 mph 16.8 mph 23% 0 in 420.00 W/m2 unknown
17:19 68 °F 28.4 °F 29.7 in NW 12.4 mph 19.9 mph 23% 0 in 408.00 W/m2 unknown
17:24 68 °F 26.6 °F 29.7 in NW 11.8 mph 19.9 mph 21% 0 in 396.00 W/m2 unknown
17:29 68 °F 26.6 °F 29.7 in NW 14.3 mph 21.1 mph 22% 0 in 385.00 W/m2 unknown
17:34 68 °F 28.4 °F 29.7 in WNW 13 mph 21.1 mph 23% 0 in 374.00 W/m2 unknown
17:39 68 °F 28.4 °F 29.7 in NW 12.4 mph 19.9 mph 24% 0 in 353.00 W/m2 unknown
17:44 68 °F 28.4 °F 29.7 in NW 11.8 mph 17.4 mph 24% 0 in 339.00 W/m2 unknown
17:49 66.2 °F 26.6 °F 29.8 in NW 11.8 mph 18.6 mph 23% 0 in 323.00 W/m2 unknown
17:54 66.2 °F 28.4 °F 29.8 in NW 9.9 mph 18 mph 23% 0 in 311.00 W/m2 unknown
17:59 66.2 °F 28.4 °F 29.8 in NNW 9.3 mph 14.9 mph 23% 0 in 301.00 W/m2 unknown
18:04 66.2 °F 30.2 °F 29.8 in NW 9.9 mph 14.3 mph 26% 0 in 281.00 W/m2 unknown
18:09 66.2 °F 28.4 °F 29.8 in NW 10.6 mph 14.3 mph 23% 0 in 264.00 W/m2 unknown
18:14 66.2 °F 26.6 °F 29.8 in NW 9.3 mph 14.9 mph 23% 0 in 251.00 W/m2 unknown
18:19 66.2 °F 26.6 °F 29.8 in WNW 9.9 mph 14.9 mph 23% 0 in 232.00 W/m2 unknown
18:24 66.2 °F 32 °F 29.8 in WNW 8.1 mph 14.9 mph 28% 0 in 218.00 W/m2 unknown
18:29 64.4 °F 32 °F 29.8 in NW 12.4 mph 18.6 mph 29% 0 in 202.00 W/m2 unknown
18:34 64.4 °F 30.2 °F 29.8 in NW 13 mph 17.4 mph 27% 0 in 51.00 W/m2 unknown
18:39 64.4 °F 30.2 °F 29.8 in NW 8.7 mph 16.8 mph 28% 0 in 127.00 W/m2 unknown
18:44 64.4 °F 32 °F 29.8 in NW 6.8 mph 11.8 mph 30% 0 in 132.00 W/m2 unknown
18:49 64.4 °F 32 °F 29.8 in NW 6.8 mph 11.8 mph 30% 0 in 120.00 W/m2 unknown
18:54 62.6 °F 32 °F 29.8 in NW 8.1 mph 11.8 mph 30% 0 in 104.00 W/m2 unknown
18:59 62.6 °F 30.2 °F 29.8 in NNW 8.7 mph 11.8 mph 28% 0 in 84.00 W/m2 unknown
19:04 62.6 °F 26.6 °F 29.8 in NNW 8.7 mph 13 mph 25% 0 in 69.00 W/m2 unknown
19:09 62.6 °F 24.8 °F 29.8 in NNW 9.9 mph 13 mph 24% 0 in 58.00 W/m2 unknown
19:14 62.6 °F 24.8 °F 29.8 in NNW 9.9 mph 12.4 mph 25% 0 in 30.00 W/m2 unknown
19:19 60.8 °F 26.6 °F 29.8 in North 7.5 mph 13 mph 26% 0 in 19.00 W/m2 unknown
19:24 60.8 °F 24.8 °F 29.8 in NNW 10.6 mph 14.9 mph 25% 0 in 14.00 W/m2 unknown
19:29 60.8 °F 23 °F 29.8 in NNW 10.6 mph 14.9 mph 24% 0 in 11.00 W/m2 unknown
19:34 60.8 °F 23 °F 29.8 in NNW 9.9 mph 14.9 mph 24% 0 in 9.00 W/m2 unknown
19:39 60.8 °F 21.2 °F 29.8 in NNW 9.9 mph 14.9 mph 23% 0 in 5.00 W/m2 unknown
19:44 59 °F 21.2 °F 29.8 in NNW 9.3 mph 14.9 mph 23% 0 in 0.00 W/m2 unknown
19:49 59 °F 21.2 °F 29.8 in NNW 11.2 mph 14.9 mph 24% 0 in 0.00 W/m2 unknown
19:54 59 °F 23 °F 29.8 in NNW 8.1 mph 14.9 mph 25% 0 in 0.00 W/m2 unknown
19:59 59 °F 23 °F 29.8 in NNW 7.5 mph 13 mph 25% 0 in 0.00 W/m2 unknown
20:04 57.2 °F 21.2 °F 29.8 in North 6.8 mph 11.8 mph 25% 0 in 0.00 W/m2 unknown
20:09 57.2 °F 23 °F 29.8 in NNW 6.8 mph 10.6 mph 26% 0 in 0.00 W/m2 unknown
20:14 57.2 °F 23 °F 29.8 in NNW 6.8 mph 11.8 mph 27% 0 in 0.00 W/m2 unknown
20:19 57.2 °F 23 °F 29.8 in NNW 8.1 mph 14.3 mph 27% 0 in 0.00 W/m2 unknown
20:24 55.4 °F 21.2 °F 29.9 in NNW 8.7 mph 14.3 mph 26% 0 in 0.00 W/m2 unknown
20:29 55.4 °F 21.2 °F 29.9 in NNW 6.8 mph 14.3 mph 27% 0 in 0.00 W/m2 unknown
20:34 55.4 °F 21.2 °F 29.9 in North 7.5 mph 11.8 mph 27% 0 in 0.00 W/m2 unknown
20:39 55.4 °F 21.2 °F 29.9 in NNW 8.7 mph 11.8 mph 27% 0 in 0.00 W/m2 unknown
20:44 55.4 °F 21.2 °F 29.9 in North 8.1 mph 11.8 mph 27% 0 in 0.00 W/m2 unknown
20:49 55.4 °F 21.2 °F 29.9 in NNW 6.8 mph 11.8 mph 27% 0 in 0.00 W/m2 unknown
20:54 55.4 °F 21.2 °F 29.9 in NNW 7.5 mph 11.8 mph 27% 0 in 0.00 W/m2 unknown
20:59 55.4 °F 21.2 °F 29.9 in NNW 6.8 mph 11.8 mph 27% 0 in 0.00 W/m2 unknown
21:04 53.6 °F 21.2 °F 29.9 in NNW 6.8 mph 11.8 mph 28% 0 in 0.00 W/m2 unknown
21:09 53.6 °F 21.2 °F 29.9 in NNW 7.5 mph 11.2 mph 28% 0 in 0.00 W/m2 unknown
21:14 53.6 °F 21.2 °F 29.9 in North 7.5 mph 11.8 mph 28% 0 in 0.00 W/m2 unknown
21:19 53.6 °F 21.2 °F 29.9 in NNW 5 mph 11.8 mph 29% 0 in 0.00 W/m2 unknown
21:24 53.6 °F 23 °F 29.9 in NNW 7.5 mph 10.6 mph 30% 0 in 0.00 W/m2 unknown
21:29 53.6 °F 23 °F 29.9 in NNW 6.8 mph 9.9 mph 30% 0 in 0.00 W/m2 unknown
21:34 53.6 °F 24.8 °F 29.9 in NNW 6.2 mph 9.3 mph 33% 0 in 0.00 W/m2 unknown
21:39 53.6 °F 24.8 °F 29.9 in NNW 8.1 mph 11.8 mph 34% 0 in 0.00 W/m2 unknown
21:44 51.8 °F 24.8 °F 29.9 in NNW 8.1 mph 11.8 mph 35% 0 in 0.00 W/m2 unknown
21:49 51.8 °F 26.6 °F 29.9 in NNW 6.2 mph 11.8 mph 36% 0 in 0.00 W/m2 unknown
21:54 51.8 °F 26.6 °F 29.9 in NNW 6.8 mph 9.9 mph 36% 0 in 0.00 W/m2 unknown
21:59 51.8 °F 26.6 °F 29.9 in NNW 6.8 mph 10.6 mph 36% 0 in 0.00 W/m2 unknown
22:04 51.8 °F 26.6 °F 29.9 in NNW 6.8 mph 9.9 mph 37% 0 in 0.00 W/m2 unknown
22:09 51.8 °F 26.6 °F 29.9 in NNW 7.5 mph 11.8 mph 38% 0 in 0.00 W/m2 unknown
22:14 51.8 °F 26.6 °F 29.9 in NNW 7.5 mph 11.8 mph 39% 0 in 0.00 W/m2 unknown
22:19 51.8 °F 26.6 °F 29.9 in North 6.2 mph 9.9 mph 39% 0 in 0.00 W/m2 unknown
22:24 50 °F 26.6 °F 29.9 in NNW 5 mph 8.1 mph 40% 0 in 0.00 W/m2 unknown
22:29 50 °F 26.6 °F 29.9 in NNW 4.3 mph 6.8 mph 41% 0 in 0.00 W/m2 unknown
22:34 50 °F 26.6 °F 30 in NNW 6.2 mph 8.7 mph 41% 0 in 0.00 W/m2 unknown
22:39 50 °F 26.6 °F 30 in NNW 5.6 mph 9.3 mph 41% 0 in 0.00 W/m2 unknown
22:44 50 °F 26.6 °F 30 in NNW 4.3 mph 8.7 mph 42% 0 in 0.00 W/m2 unknown
22:47 50 °F 26.6 °F 30 in NNW 5 mph 6.8 mph 41% 0 in 0.00 W/m2 unknown
22:54 50 °F 26.6 °F 30 in NNW 5 mph 6.8 mph 40% 0 in 0.00 W/m2 unknown
22:59 50 °F 26.6 °F 30 in North 3.7 mph 5 mph 40% 0 in 0.00 W/m2 unknown
23:04 48.2 °F 24.8 °F 30 in NE 3.1 mph 5 mph 39% 0 in 0.00 W/m2 unknown
23:09 48.2 °F 24.8 °F 30 in NNE 4.3 mph 5 mph 38% 0 in 0.00 W/m2 unknown
23:14 48.2 °F 23 °F 30 in North 3.7 mph 6.2 mph 37% 0 in 0.00 W/m2 unknown
23:19 48.2 °F 23 °F 30 in North 4.3 mph 6.2 mph 38% 0 in 0.00 W/m2 unknown
23:24 48.2 °F 23 °F 30 in NNE 5 mph 6.2 mph 36% 0 in 0.00 W/m2 unknown
23:29 48.2 °F 21.2 °F 30 in North 5 mph 6.8 mph 35% 0 in 0.00 W/m2 unknown
23:34 48.2 °F 21.2 °F 30 in North 5.6 mph 6.8 mph 34% 0 in 0.00 W/m2 unknown
23:39 48.2 °F 21.2 °F 30 in North 5 mph 6.8 mph 33% 0 in 0.00 W/m2 unknown
23:44 48.2 °F 21.2 °F 30 in North 5 mph 6.8 mph 33% 0 in 0.00 W/m2 unknown
23:49 48.2 °F 19.4 °F 30 in NNW 5 mph 6.8 mph 32% 0 in 0.00 W/m2 unknown
23:54 48.2 °F 21.2 °F 30 in NNW 4.3 mph 6.2 mph 33% 0 in 0.00 W/m2 unknown
23:59 48.2 °F 21.2 °F 30 in North 5 mph 6.2 mph 33% 0 in 0.00 W/m2 unknown
Stazione Meteorologica MeteoMincio Rivalta s/M (MN)
Con i complimenti di Weather Underground - 4 mb



METEO PILLOLE
La più intensa nevicata in 24 ore
Silverlake nel Colorado - USA
Il 14 aprile 1921 caddero 193 cm di neve. C'è anche un dato, ma non è ufficiale di: Roccacaramanico (1050m), Abruzzo, Italia. Il 17 dicembre del 1961, caddero 340 cm di neve.Il centro abitato si trova a 1050 m, in un imbuto naturale tra il monte Morrone (2061 m) ed il Massiccio della Majella (2793 m) che riceve fortissime precipitazioni da stau con venti settentrionali ed orientali.
Share

Non seguire questo link o sarai bannato dal sito!